createdAt,value
2022-09-23T00:01:27.041Z,6.80
2022-09-23T00:03:00.498Z,6.43
2022-09-23T00:04:33.480Z,6.50
2022-09-23T00:06:08.631Z,6.95
2022-09-23T00:07:41.918Z,6.45
2022-09-23T00:09:14.896Z,6.43
2022-09-23T00:10:47.652Z,6.63
2022-09-23T00:12:20.637Z,6.50
2022-09-23T00:13:54.941Z,6.68
2022-09-23T00:15:27.219Z,6.47
2022-09-23T00:17:00.293Z,6.15
2022-09-23T00:18:33.843Z,6.20
2022-09-23T00:20:09.326Z,6.75
2022-09-23T00:21:42.521Z,6.43
2022-09-23T00:23:15.535Z,6.63
2022-09-23T00:24:48.480Z,5.47
2022-09-23T00:26:22.660Z,6.38
2022-09-23T00:27:55.776Z,5.35
2022-09-23T00:29:28.008Z,5.22
2022-09-23T00:31:03.730Z,5.88
2022-09-23T00:32:38.316Z,5.30
2022-09-23T00:34:12.905Z,5.25
2022-09-23T00:35:44.944Z,5.45
2022-09-23T00:37:17.907Z,5.07
2022-09-23T00:38:49.983Z,4.93
2022-09-23T00:40:23.055Z,5.47
2022-09-23T00:41:55.166Z,5.40
2022-09-23T00:43:42.491Z,6.00
2022-09-23T00:45:16.182Z,6.20
2022-09-23T00:46:49.074Z,6.03
2022-09-23T00:48:22.335Z,5.97
2022-09-23T00:50:02.016Z,6.03
2022-09-23T00:51:38.123Z,5.53
2022-09-23T00:53:14.888Z,5.90
2022-09-23T00:54:48.809Z,5.55
2022-09-23T00:56:23.748Z,5.32
2022-09-23T00:58:00.041Z,5.00
2022-09-23T00:59:33.983Z,5.30
2022-09-23T01:01:09.326Z,4.70
2022-09-23T01:02:41.424Z,5.22
2022-09-23T01:04:14.772Z,5.35
2022-09-23T01:07:21.909Z,5.38
2022-09-23T01:08:54.845Z,5.22
2022-09-23T01:10:34.480Z,4.90
2022-09-23T01:12:28.082Z,5.10
2022-09-23T01:14:21.803Z,5.63
2022-09-23T01:16:03.726Z,5.05
2022-09-23T01:17:44.951Z,5.07
2022-09-23T01:19:35.780Z,4.90
2022-09-23T01:21:16.635Z,4.97
2022-09-23T01:22:57.804Z,4.78
2022-09-23T01:25:06.200Z,5.55
2022-09-23T01:27:04.921Z,5.15
2022-09-23T01:29:00.897Z,4.78
2022-09-23T01:30:44.047Z,5.07
2022-09-23T01:32:25.155Z,4.80
2022-09-23T01:34:05.039Z,4.72
2022-09-23T01:36:03.761Z,5.20
2022-09-23T01:37:44.910Z,4.75
2022-09-23T01:39:24.969Z,4.88
2022-09-23T01:41:03.474Z,5.10
2022-09-23T01:42:42.152Z,5.28
2022-09-23T01:44:23.939Z,5.30
2022-09-23T01:46:01.321Z,5.20
2022-09-23T01:47:38.711Z,4.95
2022-09-23T01:49:16.549Z,5.05
2022-09-23T01:50:58.408Z,5.35
2022-09-23T01:52:38.199Z,4.95
2022-09-23T01:54:16.312Z,5.15
2022-09-23T01:55:51.993Z,4.60
2022-09-23T01:57:31.720Z,4.85
2022-09-23T01:59:12.585Z,5.00
2022-09-23T02:00:50.345Z,4.88
2022-09-23T02:02:30.348Z,5.10
2022-09-23T02:04:08.473Z,4.93
2022-09-23T02:05:47.680Z,5.00
2022-09-23T02:07:25.851Z,4.40
2022-09-23T02:09:01.630Z,4.60
2022-09-23T02:10:40.990Z,4.72
2022-09-23T02:12:18.614Z,5.10
2022-09-23T02:13:55.487Z,4.35
2022-09-23T02:15:33.436Z,4.57
2022-09-23T02:17:13.051Z,4.20
2022-09-23T02:18:52.206Z,4.50
2022-09-23T02:20:29.520Z,4.45
2022-09-23T02:22:06.705Z,4.30
2022-09-23T02:23:42.481Z,4.32
2022-09-23T02:25:17.348Z,4.13
2022-09-23T02:26:54.570Z,4.40
2022-09-23T02:28:33.680Z,4.18
2022-09-23T02:30:12.523Z,4.85
2022-09-23T02:31:55.477Z,4.35
2022-09-23T02:33:36.617Z,4.57
2022-09-23T02:35:18.445Z,4.40
2022-09-23T02:37:03.603Z,4.75
2022-09-23T02:38:42.219Z,4.15
2022-09-23T02:40:23.467Z,4.93
2022-09-23T02:42:02.482Z,4.65
2022-09-23T02:43:42.967Z,4.88
2022-09-23T02:45:16.295Z,5.78
2022-09-23T02:48:30.256Z,4.82
2022-09-23T02:50:03.185Z,4.70
2022-09-23T02:51:38.184Z,4.50
2022-09-23T02:53:11.533Z,4.65
2022-09-23T02:56:19.045Z,4.57
2022-09-23T02:57:53.377Z,4.35
2022-09-23T02:59:25.314Z,4.53
2022-09-23T03:01:08.453Z,4.78
2022-09-23T03:03:12.052Z,4.10
2022-09-23T03:04:55.394Z,4.40
2022-09-23T03:06:33.100Z,4.30
2022-09-23T03:08:25.754Z,4.28
2022-09-23T03:10:09.602Z,4.15
2022-09-23T03:13:29.371Z,3.67
2022-09-23T03:15:12.300Z,4.35
2022-09-23T03:16:53.414Z,4.13
2022-09-23T03:18:34.980Z,4.20
2022-09-23T03:20:12.328Z,4.25
2022-09-23T03:21:52.082Z,4.38
2022-09-23T03:23:32.292Z,4.35
2022-09-23T03:25:10.071Z,4.35
2022-09-23T03:26:47.198Z,4.15
2022-09-23T03:28:22.038Z,4.40
2022-09-23T03:29:57.244Z,4.18
2022-09-23T03:31:30.595Z,4.72
2022-09-23T03:34:42.636Z,5.18
2022-09-23T03:36:38.375Z,5.72
2022-09-23T03:38:17.418Z,5.80
2022-09-23T03:39:55.468Z,5.68
2022-09-23T03:41:32.683Z,5.15
2022-09-23T03:43:06.031Z,5.35
2022-09-23T03:46:18.554Z,5.55
2022-09-23T03:47:51.502Z,5.55
2022-09-23T03:49:27.426Z,5.95
2022-09-23T03:51:02.617Z,5.85
2022-09-23T03:52:35.628Z,5.95
2022-09-23T03:54:07.715Z,5.75
2022-09-23T03:55:42.082Z,6.40
2022-09-23T03:57:15.481Z,6.00
2022-09-23T04:00:21.737Z,5.40
2022-09-23T04:01:55.720Z,5.57
2022-09-23T04:03:29.316Z,5.25
2022-09-23T04:05:02.313Z,5.55
2022-09-23T04:06:35.656Z,5.07
2022-09-23T04:08:08.605Z,4.95
2022-09-23T04:09:42.384Z,5.25
2022-09-23T04:11:16.653Z,5.25
2022-09-23T04:12:49.676Z,4.95
2022-09-23T04:14:27.494Z,6.15
2022-09-23T04:16:00.729Z,5.28
2022-09-23T04:17:33.727Z,4.75
2022-09-23T04:19:11.342Z,5.15
2022-09-23T04:20:44.829Z,5.13
2022-09-23T04:22:17.788Z,5.50
2022-09-23T04:23:50.811Z,5.00
2022-09-23T04:25:23.755Z,5.45
2022-09-23T04:26:58.483Z,5.22
2022-09-23T04:28:31.637Z,5.28
2022-09-23T04:30:08.157Z,5.32
2022-09-23T04:31:41.109Z,5.47
2022-09-23T04:33:14.075Z,5.43
2022-09-23T04:34:46.939Z,5.22
2022-09-23T04:36:20.756Z,5.32
2022-09-23T04:37:53.720Z,5.40
2022-09-23T04:39:26.610Z,5.72
2022-09-23T04:40:59.582Z,5.20
2022-09-23T04:42:33.822Z,5.60
2022-09-23T04:44:07.093Z,5.13
2022-09-23T04:45:40.056Z,5.55
2022-09-23T04:47:13.174Z,5.25
2022-09-23T04:48:46.235Z,5.07
2022-09-23T04:50:18.228Z,5.20
2022-09-23T04:51:51.161Z,4.97
2022-09-23T04:53:24.252Z,4.93
2022-09-23T04:54:57.304Z,5.40
2022-09-23T04:56:32.652Z,5.63
2022-09-23T04:58:09.041Z,5.20
2022-09-23T04:59:41.979Z,5.32
2022-09-23T05:01:17.522Z,4.93
2022-09-23T05:02:51.451Z,5.20
2022-09-23T05:04:24.867Z,4.85
2022-09-23T05:07:32.955Z,5.03
2022-09-23T05:09:08.024Z,4.70
2022-09-23T05:10:41.111Z,4.70
2022-09-23T05:12:14.360Z,4.70
2022-09-23T05:13:49.422Z,5.10
2022-09-23T05:15:22.323Z,4.38
2022-09-23T05:16:55.228Z,4.97
2022-09-23T05:18:28.508Z,4.68
2022-09-23T05:20:01.476Z,4.50
2022-09-23T05:21:35.294Z,4.75
2022-09-23T05:23:08.214Z,5.07
2022-09-23T05:24:41.092Z,4.60
2022-09-23T05:26:13.744Z,4.68
2022-09-23T05:27:46.703Z,4.78
2022-09-23T05:29:21.031Z,4.90
2022-09-23T05:30:53.997Z,4.97
2022-09-23T05:32:26.865Z,4.70
2022-09-23T05:34:01.441Z,5.13
2022-09-23T05:35:34.344Z,5.50
2022-09-23T05:37:07.366Z,5.43
2022-09-23T05:38:40.526Z,5.72
2022-09-23T05:40:13.528Z,5.40
2022-09-23T05:41:46.492Z,6.30
2022-09-23T05:43:19.471Z,6.28
2022-09-23T05:44:53.766Z,5.78
2022-09-23T05:46:28.810Z,6.43
2022-09-23T05:48:01.922Z,5.65
2022-09-23T05:49:58.015Z,5.70
2022-09-23T05:51:31.083Z,5.63
2022-09-23T05:53:04.468Z,5.45
2022-09-23T05:54:37.854Z,6.10
2022-09-23T05:57:43.582Z,5.70
2022-09-23T05:59:16.844Z,5.70
2022-09-23T06:00:52.049Z,11.15
2022-09-23T06:02:25.210Z,8.30
2022-09-23T06:03:59.609Z,5.25
2022-09-23T06:05:32.674Z,5.20
2022-09-23T06:07:05.708Z,4.70
2022-09-23T06:08:38.822Z,5.18
2022-09-23T06:10:12.094Z,5.15
2022-09-23T06:11:45.991Z,5.10
2022-09-23T06:13:18.969Z,4.63
2022-09-23T06:14:52.981Z,5.03
2022-09-23T06:16:27.629Z,5.03
2022-09-23T06:18:01.042Z,4.78
2022-09-23T06:21:07.527Z,4.72
2022-09-23T06:22:40.475Z,4.80
2022-09-23T06:24:17.594Z,5.07
2022-09-23T06:25:52.906Z,5.10
2022-09-23T06:27:25.904Z,5.00
2022-09-23T06:28:59.041Z,4.57
2022-09-23T06:30:32.019Z,4.80
2022-09-23T06:32:07.011Z,5.25
2022-09-23T06:33:40.108Z,5.07
2022-09-23T06:35:24.417Z,5.40
2022-09-23T06:37:00.944Z,5.00
2022-09-23T06:38:39.334Z,4.90
2022-09-23T06:40:12.578Z,5.15
2022-09-23T06:41:45.664Z,5.60
2022-09-23T06:43:18.677Z,5.70
2022-09-23T06:44:51.558Z,5.18
2022-09-23T06:46:24.542Z,5.25
2022-09-23T06:47:59.239Z,5.50
2022-09-23T06:49:32.259Z,5.40
2022-09-23T06:51:07.641Z,5.75
2022-09-23T06:52:41.101Z,5.60
2022-09-23T06:54:14.520Z,5.53
2022-09-23T06:57:21.069Z,6.28
2022-09-23T07:00:29.097Z,6.50
2022-09-23T07:02:02.882Z,6.47
2022-09-23T07:03:38.290Z,6.75
2022-09-23T07:05:11.600Z,7.00
2022-09-23T07:06:44.626Z,6.35
2022-09-23T07:08:17.605Z,6.55
2022-09-23T07:09:51.229Z,6.20
2022-09-23T07:11:24.264Z,6.13
2022-09-23T07:12:57.466Z,6.45
2022-09-23T07:14:30.396Z,5.97
2022-09-23T07:16:03.691Z,6.20
2022-09-23T07:19:12.300Z,6.15
2022-09-23T07:20:45.523Z,5.80
2022-09-23T07:22:18.669Z,5.55
2022-09-23T07:23:51.967Z,6.47
2022-09-23T07:25:25.116Z,5.90
2022-09-23T07:26:58.157Z,5.88
2022-09-23T07:28:32.167Z,6.28
2022-09-23T07:30:06.528Z,5.40
2022-09-23T07:31:40.715Z,5.22
2022-09-23T07:33:28.398Z,5.32
2022-09-23T07:35:06.746Z,5.68
2022-09-23T07:36:41.566Z,5.50
2022-09-23T07:38:15.131Z,6.35
2022-09-23T07:39:48.070Z,5.90
2022-09-23T07:41:21.179Z,6.50
2022-09-23T07:42:55.420Z,6.13
2022-09-23T07:44:30.974Z,5.93
2022-09-23T07:46:08.205Z,6.15
2022-09-23T07:47:41.292Z,6.18
2022-09-23T07:49:14.244Z,5.88
2022-09-23T07:50:48.509Z,5.88
2022-09-23T07:52:21.459Z,5.25
2022-09-23T07:53:56.559Z,5.80
2022-09-23T07:55:29.652Z,5.63
2022-09-23T07:57:08.738Z,4.95
2022-09-23T07:58:41.710Z,4.60
2022-09-23T08:00:17.093Z,4.93
2022-09-23T08:01:52.887Z,4.60
2022-09-23T08:03:25.875Z,4.78
2022-09-23T08:04:58.819Z,4.63
2022-09-23T08:06:33.611Z,4.80
2022-09-23T08:08:08.184Z,4.65
2022-09-23T08:09:43.193Z,4.45
2022-09-23T08:11:16.364Z,4.00
2022-09-23T08:12:49.468Z,3.63
2022-09-23T08:14:23.390Z,5.53
2022-09-23T08:15:56.323Z,4.07
2022-09-23T08:17:29.557Z,3.90
2022-09-23T08:19:02.951Z,4.05
2022-09-23T08:20:47.275Z,3.95
2022-09-23T08:22:22.291Z,3.85
2022-09-23T08:23:55.257Z,3.95
2022-09-23T08:25:28.578Z,3.88
2022-09-23T08:27:02.101Z,3.50
2022-09-23T08:28:35.253Z,3.80
2022-09-23T08:30:09.436Z,3.60
2022-09-23T08:31:42.685Z,4.07
2022-09-23T08:33:19.645Z,3.75
2022-09-23T08:34:55.525Z,3.38
2022-09-23T08:36:28.432Z,5.05
2022-09-23T08:38:02.660Z,4.20
2022-09-23T08:39:35.582Z,3.80
2022-09-23T08:41:16.342Z,3.80
2022-09-23T08:42:50.101Z,3.78
2022-09-23T08:44:26.768Z,3.60
2022-09-23T08:46:03.663Z,3.45
2022-09-23T08:47:45.388Z,3.60
2022-09-23T08:49:25.292Z,3.40
2022-09-23T08:51:05.167Z,3.63
2022-09-23T08:52:49.528Z,3.35
2022-09-23T08:54:27.225Z,3.25
2022-09-23T08:56:04.276Z,3.20
2022-09-23T08:58:07.906Z,3.10
2022-09-23T08:59:45.170Z,2.97
2022-09-23T09:01:24.955Z,2.92
2022-09-23T09:02:58.039Z,3.20
2022-09-23T09:04:42.938Z,2.70
2022-09-23T09:06:21.342Z,3.10
2022-09-23T09:07:58.557Z,2.83
2022-09-23T09:09:37.484Z,2.58
2022-09-23T09:11:14.217Z,2.97
2022-09-23T09:12:48.823Z,3.00
2022-09-23T09:14:27.468Z,2.88
2022-09-23T09:16:18.832Z,2.80
2022-09-23T09:18:07.692Z,3.17
2022-09-23T09:19:56.327Z,2.60
2022-09-23T09:21:37.634Z,2.47
2022-09-23T09:23:22.506Z,2.38
2022-09-23T09:25:01.442Z,2.20
2022-09-23T09:26:35.642Z,2.28
2022-09-23T09:28:15.775Z,2.50
2022-09-23T09:29:53.875Z,2.00
2022-09-23T09:31:32.600Z,2.10
2022-09-23T09:33:11.182Z,2.03
2022-09-23T09:34:54.040Z,2.30
2022-09-23T09:36:37.100Z,2.40
2022-09-23T09:38:10.050Z,2.30
2022-09-23T09:39:43.073Z,2.28
2022-09-23T09:41:21.428Z,2.22
2022-09-23T09:42:54.776Z,2.08
2022-09-23T09:46:18.399Z,1.90
2022-09-23T09:48:00.924Z,2.00
2022-09-23T09:49:41.813Z,2.10
2022-09-23T09:51:21.550Z,1.85
2022-09-23T09:53:22.301Z,2.42
2022-09-23T09:55:00.457Z,1.85
2022-09-23T09:56:37.066Z,2.42
2022-09-23T09:58:16.462Z,2.10
2022-09-23T09:59:49.404Z,1.98
2022-09-23T10:01:24.682Z,1.80
2022-09-23T10:03:00.109Z,2.33
2022-09-23T10:04:36.852Z,2.10
2022-09-23T10:06:19.031Z,2.30
2022-09-23T10:07:52.026Z,1.85
2022-09-23T10:09:34.524Z,2.50
2022-09-23T10:11:15.145Z,2.03
2022-09-23T10:12:49.885Z,2.33
2022-09-23T10:14:23.706Z,1.92
2022-09-23T10:15:57.420Z,1.95
2022-09-23T10:17:33.655Z,1.88
2022-09-23T10:19:15.134Z,2.45
2022-09-23T10:20:49.143Z,1.98
2022-09-23T10:22:30.052Z,2.08
2022-09-23T10:24:05.567Z,1.77
2022-09-23T10:25:38.608Z,1.80
2022-09-23T10:27:12.784Z,1.80
2022-09-23T10:28:50.328Z,2.00
2022-09-23T10:30:25.956Z,1.70
2022-09-23T10:32:26.435Z,1.98
2022-09-23T10:34:01.423Z,2.25
2022-09-23T10:35:34.969Z,2.00
2022-09-23T10:37:17.379Z,2.10
2022-09-23T10:38:53.269Z,2.30
2022-09-23T10:40:48.622Z,2.20
2022-09-23T10:42:52.166Z,4.25
2022-09-23T10:44:53.460Z,1.70
2022-09-23T10:46:42.306Z,1.80
2022-09-23T10:48:27.076Z,2.00
2022-09-23T10:50:11.424Z,1.70
2022-09-23T10:51:53.604Z,2.40
2022-09-23T10:53:39.062Z,2.20
2022-09-23T10:55:34.685Z,1.60
2022-09-23T10:57:35.012Z,1.85
2022-09-23T10:59:40.183Z,2.17
2022-09-23T11:01:27.667Z,1.60
2022-09-23T11:03:42.375Z,1.70
2022-09-23T11:05:36.991Z,1.63
2022-09-23T11:07:19.499Z,1.90
2022-09-23T11:09:04.884Z,1.60
2022-09-23T11:11:04.748Z,1.40
2022-09-23T11:12:45.644Z,1.70
2022-09-23T11:14:38.635Z,1.45
2022-09-23T11:16:23.026Z,1.60
2022-09-23T11:18:15.813Z,1.70
2022-09-23T11:20:21.951Z,1.67
2022-09-23T11:22:16.178Z,1.60
2022-09-23T11:25:46.677Z,1.75
2022-09-23T11:27:32.154Z,1.80
2022-09-23T11:29:21.413Z,1.80
2022-09-23T11:31:04.404Z,1.80
2022-09-23T11:33:14.184Z,1.75
2022-09-23T11:35:06.365Z,1.80
2022-09-23T11:36:43.391Z,1.88
2022-09-23T11:38:25.985Z,2.20
2022-09-23T11:40:04.436Z,2.03
2022-09-23T11:41:40.674Z,1.83
2022-09-23T11:43:21.684Z,2.17
2022-09-23T11:44:59.576Z,1.40
2022-09-23T11:46:37.649Z,2.10
2022-09-23T11:48:17.821Z,1.80
2022-09-23T11:49:54.464Z,2.60
2022-09-23T11:51:32.008Z,1.80
2022-09-23T11:53:09.949Z,2.03
2022-09-23T11:54:48.103Z,1.77
2022-09-23T11:56:34.636Z,1.60
2022-09-23T11:58:24.161Z,2.35
2022-09-23T12:00:02.121Z,2.00
2022-09-23T12:01:43.168Z,2.10
2022-09-23T12:03:43.135Z,1.75
2022-09-23T12:05:22.341Z,1.42
2022-09-23T12:07:02.168Z,2.20
2022-09-23T12:08:37.941Z,1.70
2022-09-23T12:10:12.841Z,3.72
2022-09-23T12:11:51.691Z,2.33
2022-09-23T12:13:35.481Z,1.70
2022-09-23T12:15:27.522Z,3.35
2022-09-23T12:17:19.203Z,2.30
2022-09-23T12:19:01.338Z,1.95
2022-09-23T12:20:49.582Z,1.65
2022-09-23T12:22:39.899Z,1.77
2022-09-23T12:24:55.581Z,1.77
2022-09-23T12:26:29.950Z,1.35
2022-09-23T12:28:07.884Z,1.60
2022-09-23T12:29:42.251Z,2.00
2022-09-23T12:31:19.108Z,1.52
2022-09-23T12:32:52.740Z,1.80
2022-09-23T12:34:31.234Z,1.50
2022-09-23T12:36:06.565Z,1.88
2022-09-23T12:37:41.586Z,1.80
2022-09-23T12:39:21.028Z,1.80
2022-09-23T12:40:55.839Z,1.80
2022-09-23T12:42:31.301Z,1.90
2022-09-23T12:44:29.358Z,1.80
2022-09-23T12:46:21.782Z,1.77
2022-09-23T12:47:58.762Z,1.88
2022-09-23T12:49:39.167Z,1.88
2022-09-23T12:51:23.076Z,1.50
2022-09-23T12:52:56.554Z,1.70
2022-09-23T12:54:30.001Z,1.60
2022-09-23T12:56:16.040Z,1.73
2022-09-23T12:57:49.274Z,1.50
2022-09-23T13:02:42.512Z,1.67
2022-09-23T13:04:48.562Z,1.70
2022-09-23T13:06:39.782Z,2.00
2022-09-23T13:08:16.847Z,1.60
2022-09-23T13:09:52.879Z,1.80
2022-09-23T13:11:29.264Z,1.73
2022-09-23T13:13:03.443Z,2.17
2022-09-23T13:14:37.891Z,3.25
2022-09-23T13:16:14.774Z,2.40
2022-09-23T13:17:48.401Z,1.90
2022-09-23T13:19:46.211Z,1.80
2022-09-23T13:21:40.322Z,1.90
2022-09-23T13:23:23.955Z,1.58
2022-09-23T13:26:36.528Z,1.50
2022-09-23T13:28:23.053Z,1.65
2022-09-23T13:30:01.224Z,1.58
2022-09-23T13:31:36.271Z,1.52
2022-09-23T13:33:15.069Z,1.85
2022-09-23T13:34:57.989Z,1.90
2022-09-23T13:36:36.774Z,1.88
2022-09-23T13:38:18.743Z,1.80
2022-09-23T13:39:53.284Z,2.30
2022-09-23T13:41:28.589Z,2.85
2022-09-23T13:43:05.282Z,2.33
2022-09-23T13:44:41.937Z,1.90
2022-09-23T13:46:20.023Z,2.00
2022-09-23T13:47:55.692Z,1.80
2022-09-23T13:49:34.035Z,1.50
2022-09-23T13:51:11.453Z,1.77
2022-09-23T13:52:44.571Z,1.80
2022-09-23T13:54:29.376Z,1.92
2022-09-23T13:56:07.260Z,1.67
2022-09-23T13:57:40.325Z,1.95
2022-09-23T13:59:24.467Z,1.75
2022-09-23T14:00:57.644Z,1.88
2022-09-23T14:04:03.768Z,1.52
2022-09-23T14:07:15.136Z,1.40
2022-09-23T14:08:50.180Z,1.60
2022-09-23T14:10:24.807Z,1.80
2022-09-23T14:12:01.787Z,1.67
2022-09-23T14:13:45.581Z,1.80
2022-09-23T14:16:53.808Z,2.13
2022-09-23T14:18:35.174Z,1.77
2022-09-23T14:20:15.193Z,1.90
2022-09-23T14:21:50.133Z,1.60
2022-09-23T14:23:23.684Z,2.05
2022-09-23T14:24:58.485Z,1.80
2022-09-23T14:26:31.530Z,1.88
2022-09-23T14:28:06.464Z,2.42
2022-09-23T14:29:41.556Z,1.90
2022-09-23T14:31:15.426Z,2.50
2022-09-23T14:32:48.877Z,1.90
2022-09-23T14:34:43.900Z,1.95
2022-09-23T14:36:36.726Z,1.60
2022-09-23T14:38:28.044Z,3.17
2022-09-23T14:40:01.927Z,3.10
2022-09-23T14:41:38.231Z,3.58
2022-09-23T14:43:18.537Z,5.80
2022-09-23T14:44:51.520Z,2.90
2022-09-23T14:46:26.781Z,5.00
2022-09-23T14:48:02.023Z,4.97
2022-09-23T14:49:35.010Z,2.70
2022-09-23T14:51:14.468Z,2.10
2022-09-23T14:52:50.587Z,2.63
2022-09-23T14:54:30.077Z,2.00
2022-09-23T14:56:15.728Z,1.80
2022-09-23T14:57:49.020Z,1.85
2022-09-23T15:01:02.423Z,1.60
2022-09-23T15:02:37.546Z,1.83
2022-09-23T15:04:16.558Z,1.70
2022-09-23T15:05:51.421Z,1.73
2022-09-23T15:07:24.608Z,2.22
2022-09-23T15:10:33.307Z,2.20
2022-09-23T15:12:08.539Z,1.60
2022-09-23T15:13:44.149Z,1.60
2022-09-23T15:15:19.237Z,1.58
2022-09-23T15:16:52.275Z,1.83
2022-09-23T15:18:27.596Z,1.90
2022-09-23T15:20:03.811Z,1.85
2022-09-23T15:21:41.964Z,1.90
2022-09-23T15:23:33.588Z,1.95
2022-09-23T15:25:17.480Z,2.10
2022-09-23T15:26:52.424Z,1.92
2022-09-23T15:28:27.146Z,2.00
2022-09-23T15:30:15.024Z,1.90
2022-09-23T15:31:50.563Z,1.83
2022-09-23T15:33:27.998Z,2.03
2022-09-23T15:35:01.095Z,2.15
2022-09-23T15:36:34.892Z,1.90
2022-09-23T15:38:09.381Z,1.80
2022-09-23T15:39:42.886Z,2.00
2022-09-23T15:41:17.305Z,2.00
2022-09-23T15:42:52.613Z,1.90
2022-09-23T15:44:29.470Z,2.40
2022-09-23T15:46:07.455Z,1.80
2022-09-23T15:47:42.654Z,1.80
2022-09-23T15:49:26.027Z,1.90
2022-09-23T15:51:03.497Z,2.33
2022-09-23T15:52:37.067Z,2.30
2022-09-23T15:54:13.707Z,2.00
2022-09-23T15:55:46.786Z,2.00
2022-09-23T15:57:20.410Z,2.03
2022-09-23T15:58:53.472Z,1.92
2022-09-23T16:00:26.758Z,1.90
2022-09-23T16:03:36.603Z,2.03
2022-09-23T16:05:18.446Z,2.00
2022-09-23T16:06:51.411Z,2.00
2022-09-23T16:08:25.774Z,2.97
2022-09-23T16:09:59.281Z,3.75
2022-09-23T16:11:32.971Z,2.85
2022-09-23T16:13:08.977Z,2.20
2022-09-23T16:14:40.974Z,2.22
2022-09-23T16:16:14.116Z,2.28
2022-09-23T16:17:47.052Z,2.72
2022-09-23T16:19:21.412Z,2.90
2022-09-23T16:20:54.814Z,2.80
2022-09-23T16:22:27.796Z,2.85
2022-09-23T16:24:00.922Z,3.00
2022-09-23T16:25:36.560Z,3.00
2022-09-23T16:27:10.816Z,2.65
2022-09-23T16:28:43.837Z,2.78
2022-09-23T16:30:16.981Z,2.58
2022-09-23T16:31:50.008Z,2.40
2022-09-23T16:33:22.978Z,2.72
2022-09-23T16:34:58.516Z,2.80
2022-09-23T16:36:33.496Z,1.98
2022-09-23T16:38:07.761Z,2.00
2022-09-23T16:39:40.804Z,2.40
2022-09-23T16:41:13.794Z,2.47
2022-09-23T16:42:47.177Z,3.83
2022-09-23T16:44:20.620Z,3.00
2022-09-23T16:45:54.065Z,3.35
2022-09-23T16:47:27.074Z,3.10
2022-09-23T16:49:00.431Z,2.65
2022-09-23T16:50:35.736Z,2.75
2022-09-23T16:52:12.840Z,2.80
2022-09-23T16:53:46.119Z,2.38
2022-09-23T16:56:52.224Z,3.08
2022-09-23T17:00:15.692Z,4.78
2022-09-23T17:02:06.342Z,4.47
2022-09-23T17:03:42.342Z,4.43
2022-09-23T17:05:16.455Z,4.22
2022-09-23T17:06:52.505Z,4.80
2022-09-23T17:08:25.787Z,4.18
2022-09-23T17:11:34.084Z,3.58
2022-09-23T17:13:10.891Z,4.45
2022-09-23T17:14:44.173Z,4.28
2022-09-23T17:17:56.554Z,3.67
2022-09-23T17:19:29.518Z,3.40
2022-09-23T17:21:05.114Z,3.20
2022-09-23T17:22:39.685Z,2.90
2022-09-23T17:24:12.999Z,3.25
2022-09-23T17:27:21.863Z,3.05
2022-09-23T17:28:56.475Z,3.10
2022-09-23T17:30:29.782Z,2.60
2022-09-23T17:33:38.803Z,3.53
2022-09-23T17:35:12.782Z,3.20
2022-09-23T17:36:45.853Z,3.13
2022-09-23T17:38:20.328Z,3.20
2022-09-23T17:39:53.282Z,3.47
2022-09-23T17:41:26.821Z,3.58
2022-09-23T17:43:00.346Z,3.92
2022-09-23T17:44:33.958Z,3.30
2022-09-23T17:46:09.889Z,4.00
2022-09-23T17:47:43.122Z,5.68
2022-09-23T17:49:17.774Z,7.03
2022-09-23T17:50:57.615Z,8.60
2022-09-23T17:52:30.665Z,7.97
2022-09-23T17:54:05.424Z,7.78
2022-09-23T17:55:38.568Z,8.38
2022-09-23T17:57:11.704Z,7.65
2022-09-23T17:58:46.060Z,7.45
2022-09-23T18:00:19.211Z,7.40
2022-09-23T18:01:52.686Z,7.95
2022-09-23T18:03:27.237Z,8.05
2022-09-23T18:05:00.235Z,7.45
2022-09-23T18:06:35.519Z,7.50
2022-09-23T18:08:08.634Z,7.10
2022-09-23T18:09:43.042Z,7.10
2022-09-23T18:11:20.832Z,6.28
2022-09-23T18:12:57.231Z,6.50
2022-09-23T18:14:30.211Z,10.02
2022-09-23T18:16:04.104Z,6.93
2022-09-23T18:17:37.214Z,7.63
2022-09-23T18:19:13.920Z,7.07
2022-09-23T18:20:46.862Z,6.85
2022-09-23T18:22:19.838Z,7.30
2022-09-23T18:23:52.988Z,6.07
2022-09-23T18:25:39.169Z,5.30
2022-09-23T18:27:13.888Z,5.40
2022-09-23T18:28:47.938Z,5.70
2022-09-23T18:30:21.082Z,5.32
2022-09-23T18:31:54.173Z,6.15
2022-09-23T18:33:27.692Z,5.22
2022-09-23T18:35:00.951Z,4.93
2022-09-23T18:36:34.559Z,5.15
2022-09-23T18:38:07.678Z,5.07
2022-09-23T18:39:40.985Z,5.15
2022-09-23T18:42:48.455Z,5.30
2022-09-23T18:44:21.355Z,5.40
2022-09-23T18:45:58.762Z,5.50
2022-09-23T18:47:49.429Z,5.53
2022-09-23T18:49:39.715Z,5.43
2022-09-23T18:51:14.405Z,5.00
2022-09-23T18:52:48.219Z,5.45
2022-09-23T18:54:22.019Z,5.93
2022-09-23T18:55:55.218Z,5.47
2022-09-23T18:57:29.806Z,5.85
2022-09-23T18:59:02.803Z,5.55
2022-09-23T19:00:36.552Z,6.05
2022-09-23T19:02:10.324Z,6.40
2022-09-23T19:03:43.544Z,7.80
2022-09-23T19:05:16.765Z,8.50
2022-09-23T19:06:50.494Z,9.13
2022-09-23T19:08:24.050Z,9.10
2022-09-23T19:09:57.118Z,9.20
2022-09-23T19:11:30.068Z,8.70
2022-09-23T19:13:04.501Z,8.40
2022-09-23T19:14:37.464Z,8.00
2022-09-23T19:16:12.657Z,8.10
2022-09-23T19:17:45.736Z,8.23
2022-09-23T19:19:18.855Z,8.10
2022-09-23T19:20:52.561Z,8.10
2022-09-23T19:22:26.256Z,8.77
2022-09-23T19:24:03.005Z,7.95
2022-09-23T19:25:37.383Z,8.38
2022-09-23T19:27:10.446Z,8.20
2022-09-23T19:28:48.910Z,7.43
2022-09-23T19:30:21.894Z,7.63
2022-09-23T19:31:55.832Z,7.32
2022-09-23T19:33:28.868Z,7.45
2022-09-23T19:35:02.129Z,7.25
2022-09-23T19:36:37.748Z,7.78
2022-09-23T19:38:10.818Z,8.07
2022-09-23T19:39:44.691Z,8.38
2022-09-23T19:41:17.767Z,8.90
2022-09-23T19:42:56.857Z,7.72
2022-09-23T19:44:33.475Z,8.38
2022-09-23T19:46:07.346Z,8.23
2022-09-23T19:47:40.364Z,8.30
2022-09-23T19:49:13.667Z,8.07
2022-09-23T19:52:20.776Z,8.55
2022-09-23T19:53:53.952Z,8.43
2022-09-23T19:55:28.211Z,8.40
2022-09-23T19:57:01.337Z,8.43
2022-09-23T19:58:35.498Z,7.70
2022-09-23T20:00:11.108Z,7.93
2022-09-23T20:01:44.044Z,8.35
2022-09-23T20:03:18.207Z,6.95
2022-09-23T20:04:51.336Z,7.45
2022-09-23T20:06:24.332Z,7.30
2022-09-23T20:07:58.928Z,7.43
2022-09-23T20:09:31.972Z,7.03
2022-09-23T20:11:10.267Z,7.75
2022-09-23T20:12:43.973Z,6.70
2022-09-23T20:14:17.856Z,6.80
2022-09-23T20:15:53.134Z,6.10
2022-09-23T20:17:26.233Z,6.93
2022-09-23T20:18:59.976Z,5.93
2022-09-23T20:20:33.214Z,6.07
2022-09-23T20:22:23.624Z,6.95
2022-09-23T20:23:56.776Z,5.53
2022-09-23T20:25:49.765Z,5.80
2022-09-23T20:27:21.721Z,6.10
2022-09-23T20:28:54.041Z,5.63
2022-09-23T20:30:29.049Z,5.63
2022-09-23T20:32:03.727Z,5.70
2022-09-23T20:33:37.769Z,5.72
2022-09-23T20:35:11.072Z,5.30
2022-09-23T20:38:16.843Z,5.57
2022-09-23T20:39:50.010Z,5.63
2022-09-23T20:41:21.998Z,5.20
2022-09-23T20:42:54.948Z,4.97
2022-09-23T20:44:27.944Z,5.30
2022-09-23T20:46:01.845Z,4.85
2022-09-23T20:47:36.132Z,5.57
2022-09-23T20:49:09.046Z,5.30
2022-09-23T20:50:42.982Z,5.00
2022-09-23T20:52:17.799Z,5.18
2022-09-23T20:53:52.893Z,4.93
2022-09-23T20:55:26.037Z,4.68
2022-09-23T20:57:00.449Z,4.88
2022-09-23T20:58:36.451Z,4.45
2022-09-23T21:00:10.590Z,4.60
2022-09-23T21:01:43.876Z,4.25
2022-09-23T21:04:50.437Z,4.47
2022-09-23T21:06:26.240Z,4.65
2022-09-23T21:08:02.832Z,5.70
2022-09-23T21:09:36.111Z,4.95
2022-09-23T21:11:11.710Z,4.93
2022-09-23T21:12:45.948Z,4.93
2022-09-23T21:14:22.067Z,5.18
2022-09-23T21:15:53.962Z,5.82
2022-09-23T21:17:26.861Z,5.35
2022-09-23T21:19:02.856Z,5.35
2022-09-23T21:20:35.777Z,5.88
2022-09-23T21:22:09.097Z,5.85
2022-09-23T21:25:27.582Z,5.78
2022-09-23T21:27:03.864Z,5.88
2022-09-23T21:28:39.955Z,5.63
2022-09-23T21:30:13.929Z,6.30
2022-09-23T21:31:47.369Z,5.78
2022-09-23T21:33:20.297Z,6.10
2022-09-23T21:34:54.872Z,5.85
2022-09-23T21:36:28.188Z,6.00
2022-09-23T21:39:33.889Z,5.68
2022-09-23T21:41:08.652Z,5.50
2022-09-23T21:42:42.027Z,5.95
2022-09-23T21:45:48.186Z,5.78
2022-09-23T21:48:55.180Z,6.47
2022-09-23T21:50:30.001Z,5.88
2022-09-23T21:52:03.569Z,5.97
2022-09-23T21:53:37.374Z,6.70
2022-09-23T21:55:10.765Z,5.80
2022-09-23T21:56:44.847Z,6.85
2022-09-23T21:58:17.408Z,5.93
2022-09-23T21:59:50.274Z,6.05
2022-09-23T22:01:25.005Z,6.63
2022-09-23T22:02:57.993Z,7.40
2022-09-23T22:04:32.235Z,6.65
2022-09-23T22:06:08.733Z,6.22
2022-09-23T22:07:41.635Z,7.10
2022-09-23T22:09:16.878Z,7.32
2022-09-23T22:10:49.716Z,7.57
2022-09-23T22:12:21.635Z,7.20
2022-09-23T22:13:54.598Z,7.20
2022-09-23T22:15:27.567Z,6.85
2022-09-23T22:17:05.689Z,6.43
2022-09-23T22:18:38.572Z,6.00
2022-09-23T22:20:11.614Z,5.47
2022-09-23T22:21:45.242Z,6.03
2022-09-23T22:23:18.148Z,6.18
2022-09-23T22:24:51.832Z,5.95
2022-09-23T22:26:25.723Z,5.97
2022-09-23T22:28:15.941Z,6.43
2022-09-23T22:30:06.833Z,6.30
2022-09-23T22:31:57.484Z,6.90
2022-09-23T22:33:30.446Z,6.10